sensor_id;sensor_type;location;lat;lon;timestamp;P1;durP1;ratioP1;P2;durP2;ratioP2
8708;SDS011;4391;48.678;9.280;2022-11-15T00:01:06;10.35;;;5.07;;
8708;SDS011;4391;48.678;9.280;2022-11-15T00:03:34;9.27;;;4.93;;
8708;SDS011;4391;48.678;9.280;2022-11-15T00:06:01;14.50;;;6.78;;
8708;SDS011;4391;48.678;9.280;2022-11-15T00:08:30;19.40;;;7.13;;
8708;SDS011;4391;48.678;9.280;2022-11-15T00:10:58;20.40;;;7.63;;
8708;SDS011;4391;48.678;9.280;2022-11-15T00:13:26;19.25;;;8.00;;
8708;SDS011;4391;48.678;9.280;2022-11-15T00:15:56;16.08;;;7.60;;
8708;SDS011;4391;48.678;9.280;2022-11-15T00:18:23;16.63;;;7.28;;
8708;SDS011;4391;48.678;9.280;2022-11-15T00:20:50;16.17;;;6.90;;
8708;SDS011;4391;48.678;9.280;2022-11-15T00:23:17;10.93;;;5.70;;
8708;SDS011;4391;48.678;9.280;2022-11-15T00:25:45;12.75;;;4.75;;
8708;SDS011;4391;48.678;9.280;2022-11-15T00:28:12;10.48;;;3.85;;
8708;SDS011;4391;48.678;9.280;2022-11-15T00:30:39;9.15;;;4.45;;
8708;SDS011;4391;48.678;9.280;2022-11-15T00:33:06;9.70;;;5.10;;
8708;SDS011;4391;48.678;9.280;2022-11-15T00:35:34;10.50;;;4.25;;
8708;SDS011;4391;48.678;9.280;2022-11-15T00:38:01;13.85;;;5.57;;
8708;SDS011;4391;48.678;9.280;2022-11-15T00:40:29;14.10;;;6.55;;
8708;SDS011;4391;48.678;9.280;2022-11-15T00:42:58;12.73;;;5.72;;
8708;SDS011;4391;48.678;9.280;2022-11-15T00:45:25;12.67;;;5.67;;
8708;SDS011;4391;48.678;9.280;2022-11-15T00:47:52;13.60;;;5.45;;
8708;SDS011;4391;48.678;9.280;2022-11-15T00:50:19;14.45;;;6.63;;
8708;SDS011;4391;48.678;9.280;2022-11-15T00:52:46;13.73;;;6.00;;
8708;SDS011;4391;48.678;9.280;2022-11-15T00:55:13;14.05;;;6.88;;
8708;SDS011;4391;48.678;9.280;2022-11-15T00:57:41;12.23;;;5.50;;
8708;SDS011;4391;48.678;9.280;2022-11-15T01:00:10;12.52;;;6.00;;
8708;SDS011;4391;48.678;9.280;2022-11-15T01:02:38;11.40;;;5.47;;
8708;SDS011;4391;48.678;9.280;2022-11-15T01:05:05;11.85;;;5.88;;
8708;SDS011;4391;48.678;9.280;2022-11-15T01:07:32;12.85;;;5.00;;
8708;SDS011;4391;48.678;9.280;2022-11-15T01:09:59;12.20;;;5.03;;
8708;SDS011;4391;48.678;9.280;2022-11-15T01:12:26;11.57;;;4.70;;
8708;SDS011;4391;48.678;9.280;2022-11-15T01:14:53;11.00;;;4.40;;
8708;SDS011;4391;48.678;9.280;2022-11-15T01:17:21;8.15;;;3.80;;
8708;SDS011;4391;48.678;9.280;2022-11-15T01:19:48;8.60;;;3.47;;
8708;SDS011;4391;48.678;9.280;2022-11-15T01:22:15;10.03;;;3.77;;
8708;SDS011;4391;48.678;9.280;2022-11-15T01:24:42;8.77;;;3.58;;
8708;SDS011;4391;48.678;9.280;2022-11-15T01:27:09;7.63;;;3.47;;
8708;SDS011;4391;48.678;9.280;2022-11-15T01:29:36;9.43;;;3.63;;
8708;SDS011;4391;48.678;9.280;2022-11-15T01:32:03;7.10;;;3.40;;
8708;SDS011;4391;48.678;9.280;2022-11-15T01:34:31;8.73;;;3.40;;
8708;SDS011;4391;48.678;9.280;2022-11-15T01:36:58;7.70;;;3.30;;
8708;SDS011;4391;48.678;9.280;2022-11-15T01:39:25;11.60;;;3.35;;
8708;SDS011;4391;48.678;9.280;2022-11-15T01:41:52;8.13;;;3.70;;
8708;SDS011;4391;48.678;9.280;2022-11-15T01:44:31;6.25;;;2.95;;
8708;SDS011;4391;48.678;9.280;2022-11-15T01:47:07;7.20;;;3.00;;
8708;SDS011;4391;48.678;9.280;2022-11-15T01:49:39;6.40;;;2.55;;
8708;SDS011;4391;48.678;9.280;2022-11-15T01:52:13;9.05;;;3.15;;
8708;SDS011;4391;48.678;9.280;2022-11-15T01:54:44;7.07;;;3.03;;
8708;SDS011;4391;48.678;9.280;2022-11-15T01:57:11;10.73;;;3.42;;
8708;SDS011;4391;48.678;9.280;2022-11-15T01:59:39;6.40;;;3.07;;
8708;SDS011;4391;48.678;9.280;2022-11-15T02:02:09;9.45;;;2.67;;
8708;SDS011;4391;48.678;9.280;2022-11-15T02:04:39;6.28;;;2.80;;
8708;SDS011;4391;48.678;9.280;2022-11-15T02:07:08;6.50;;;2.72;;
8708;SDS011;4391;48.678;9.280;2022-11-15T02:09:37;6.55;;;2.63;;
8708;SDS011;4391;48.678;9.280;2022-11-15T02:12:04;5.70;;;2.77;;
8708;SDS011;4391;48.678;9.280;2022-11-15T02:14:33;7.53;;;2.92;;
8708;SDS011;4391;48.678;9.280;2022-11-15T02:17:02;7.57;;;3.55;;
8708;SDS011;4391;48.678;9.280;2022-11-15T02:19:46;11.60;;;3.80;;
8708;SDS011;4391;48.678;9.280;2022-11-15T02:22:36;9.23;;;3.60;;
8708;SDS011;4391;48.678;9.280;2022-11-15T02:25:20;8.93;;;3.40;;
8708;SDS011;4391;48.678;9.280;2022-11-15T02:31:05;8.57;;;4.10;;
8708;SDS011;4391;48.678;9.280;2022-11-15T02:33:39;9.40;;;3.80;;
8708;SDS011;4391;48.678;9.280;2022-11-15T02:36:18;8.27;;;4.32;;
8708;SDS011;4391;48.678;9.280;2022-11-15T02:38:52;9.20;;;4.20;;
8708;SDS011;4391;48.678;9.280;2022-11-15T02:41:27;8.27;;;4.15;;
8708;SDS011;4391;48.678;9.280;2022-11-15T02:43:59;9.82;;;3.90;;
8708;SDS011;4391;48.678;9.280;2022-11-15T02:46:32;7.65;;;3.90;;
8708;SDS011;4391;48.678;9.280;2022-11-15T02:49:20;6.13;;;2.92;;
8708;SDS011;4391;48.678;9.280;2022-11-15T02:51:49;7.30;;;3.13;;
8708;SDS011;4391;48.678;9.280;2022-11-15T02:54:22;8.02;;;2.95;;
8708;SDS011;4391;48.678;9.280;2022-11-15T02:56:50;7.63;;;3.33;;
8708;SDS011;4391;48.678;9.280;2022-11-15T02:59:33;8.23;;;3.03;;
8708;SDS011;4391;48.678;9.280;2022-11-15T03:02:16;6.95;;;3.50;;
8708;SDS011;4391;48.678;9.280;2022-11-15T03:04:52;6.43;;;2.83;;
8708;SDS011;4391;48.678;9.280;2022-11-15T03:07:23;8.27;;;3.13;;
8708;SDS011;4391;48.678;9.280;2022-11-15T03:10:00;10.40;;;3.10;;
8708;SDS011;4391;48.678;9.280;2022-11-15T03:12:34;6.28;;;2.88;;
8708;SDS011;4391;48.678;9.280;2022-11-15T03:15:08;7.07;;;2.75;;
8708;SDS011;4391;48.678;9.280;2022-11-15T03:17:43;5.60;;;2.60;;
8708;SDS011;4391;48.678;9.280;2022-11-15T03:20:15;5.88;;;2.88;;
8708;SDS011;4391;48.678;9.280;2022-11-15T03:22:44;5.95;;;2.70;;
8708;SDS011;4391;48.678;9.280;2022-11-15T03:25:13;6.25;;;2.55;;
8708;SDS011;4391;48.678;9.280;2022-11-15T03:27:47;7.22;;;2.92;;
8708;SDS011;4391;48.678;9.280;2022-11-15T03:30:16;5.53;;;2.60;;
8708;SDS011;4391;48.678;9.280;2022-11-15T03:32:46;6.00;;;3.05;;
8708;SDS011;4391;48.678;9.280;2022-11-15T03:35:17;10.63;;;3.70;;
8708;SDS011;4391;48.678;9.280;2022-11-15T03:37:48;8.52;;;3.63;;
8708;SDS011;4391;48.678;9.280;2022-11-15T03:40:21;9.43;;;3.20;;
8708;SDS011;4391;48.678;9.280;2022-11-15T03:42:53;9.43;;;3.17;;
8708;SDS011;4391;48.678;9.280;2022-11-15T03:45:27;10.32;;;3.47;;
8708;SDS011;4391;48.678;9.280;2022-11-15T03:47:59;7.53;;;3.40;;
8708;SDS011;4391;48.678;9.280;2022-11-15T03:50:31;7.88;;;3.47;;
8708;SDS011;4391;48.678;9.280;2022-11-15T03:52:58;10.48;;;3.55;;
8708;SDS011;4391;48.678;9.280;2022-11-15T03:55:25;7.90;;;3.30;;
8708;SDS011;4391;48.678;9.280;2022-11-15T03:57:52;10.70;;;3.80;;
8708;SDS011;4391;48.678;9.280;2022-11-15T04:00:22;7.15;;;3.17;;
8708;SDS011;4391;48.678;9.280;2022-11-15T04:02:49;7.00;;;3.08;;
8708;SDS011;4391;48.678;9.280;2022-11-15T04:05:17;7.97;;;3.47;;
8708;SDS011;4391;48.678;9.280;2022-11-15T04:07:44;7.77;;;3.90;;
8708;SDS011;4391;48.678;9.280;2022-11-15T04:10:11;8.98;;;3.60;;
8708;SDS011;4391;48.678;9.280;2022-11-15T04:12:39;8.98;;;4.00;;
8708;SDS011;4391;48.678;9.280;2022-11-15T04:15:09;7.57;;;3.60;;
8708;SDS011;4391;48.678;9.280;2022-11-15T04:17:38;12.10;;;3.47;;
8708;SDS011;4391;48.678;9.280;2022-11-15T04:20:07;7.83;;;3.40;;
8708;SDS011;4391;48.678;9.280;2022-11-15T04:22:55;6.05;;;2.78;;
8708;SDS011;4391;48.678;9.280;2022-11-15T04:25:41;7.20;;;3.00;;
8708;SDS011;4391;48.678;9.280;2022-11-15T04:28:08;8.07;;;3.15;;
8708;SDS011;4391;48.678;9.280;2022-11-15T04:30:35;7.18;;;3.40;;
8708;SDS011;4391;48.678;9.280;2022-11-15T04:33:03;7.17;;;3.27;;
8708;SDS011;4391;48.678;9.280;2022-11-15T04:35:30;7.00;;;3.28;;
8708;SDS011;4391;48.678;9.280;2022-11-15T04:37:58;8.07;;;3.08;;
8708;SDS011;4391;48.678;9.280;2022-11-15T04:40:25;7.15;;;3.25;;
8708;SDS011;4391;48.678;9.280;2022-11-15T04:42:52;8.55;;;3.47;;
8708;SDS011;4391;48.678;9.280;2022-11-15T04:45:19;7.13;;;3.40;;
8708;SDS011;4391;48.678;9.280;2022-11-15T04:47:46;6.63;;;3.05;;
8708;SDS011;4391;48.678;9.280;2022-11-15T04:50:13;9.57;;;3.72;;
8708;SDS011;4391;48.678;9.280;2022-11-15T04:52:41;7.63;;;3.17;;
8708;SDS011;4391;48.678;9.280;2022-11-15T04:55:10;6.90;;;3.03;;
8708;SDS011;4391;48.678;9.280;2022-11-15T04:57:37;8.10;;;3.20;;
8708;SDS011;4391;48.678;9.280;2022-11-15T05:00:05;6.85;;;3.90;;
8708;SDS011;4391;48.678;9.280;2022-11-15T05:02:33;7.93;;;3.97;;
8708;SDS011;4391;48.678;9.280;2022-11-15T05:05:17;7.40;;;3.20;;
8708;SDS011;4391;48.678;9.280;2022-11-15T05:07:44;7.65;;;3.45;;
8708;SDS011;4391;48.678;9.280;2022-11-15T05:10:13;8.13;;;3.87;;
8708;SDS011;4391;48.678;9.280;2022-11-15T05:12:39;8.75;;;3.70;;
8708;SDS011;4391;48.678;9.280;2022-11-15T05:15:06;9.07;;;3.63;;
8708;SDS011;4391;48.678;9.280;2022-11-15T05:17:34;9.02;;;3.92;;
8708;SDS011;4391;48.678;9.280;2022-11-15T05:20:01;10.45;;;3.67;;
8708;SDS011;4391;48.678;9.280;2022-11-15T05:22:28;8.03;;;2.90;;
8708;SDS011;4391;48.678;9.280;2022-11-15T05:24:54;7.20;;;3.08;;
8708;SDS011;4391;48.678;9.280;2022-11-15T05:27:23;7.70;;;3.55;;
8708;SDS011;4391;48.678;9.280;2022-11-15T05:29:49;7.03;;;2.95;;
8708;SDS011;4391;48.678;9.280;2022-11-15T05:32:16;6.13;;;2.70;;
8708;SDS011;4391;48.678;9.280;2022-11-15T05:34:44;6.63;;;3.00;;
8708;SDS011;4391;48.678;9.280;2022-11-15T05:37:11;7.93;;;3.47;;
8708;SDS011;4391;48.678;9.280;2022-11-15T05:39:38;7.85;;;3.47;;
8708;SDS011;4391;48.678;9.280;2022-11-15T05:42:06;8.13;;;3.80;;
8708;SDS011;4391;48.678;9.280;2022-11-15T05:44:36;12.27;;;4.30;;
8708;SDS011;4391;48.678;9.280;2022-11-15T05:47:05;8.00;;;3.60;;
8708;SDS011;4391;48.678;9.280;2022-11-15T05:49:37;8.20;;;3.90;;
8708;SDS011;4391;48.678;9.280;2022-11-15T05:52:07;12.23;;;4.30;;
8708;SDS011;4391;48.678;9.280;2022-11-15T05:54:36;7.97;;;3.60;;
8708;SDS011;4391;48.678;9.280;2022-11-15T05:57:03;8.48;;;3.60;;
8708;SDS011;4391;48.678;9.280;2022-11-15T05:59:32;8.00;;;3.70;;
8708;SDS011;4391;48.678;9.280;2022-11-15T06:02:02;9.68;;;3.58;;
8708;SDS011;4391;48.678;9.280;2022-11-15T06:04:28;8.63;;;3.78;;
8708;SDS011;4391;48.678;9.280;2022-11-15T06:06:55;9.02;;;4.07;;
8708;SDS011;4391;48.678;9.280;2022-11-15T06:09:24;7.53;;;3.63;;
8708;SDS011;4391;48.678;9.280;2022-11-15T06:11:51;9.90;;;4.30;;
8708;SDS011;4391;48.678;9.280;2022-11-15T06:14:18;10.13;;;4.57;;
8708;SDS011;4391;48.678;9.280;2022-11-15T06:16:45;9.20;;;4.93;;
8708;SDS011;4391;48.678;9.280;2022-11-15T06:19:13;9.98;;;4.28;;
8708;SDS011;4391;48.678;9.280;2022-11-15T06:21:40;10.57;;;5.28;;
8708;SDS011;4391;48.678;9.280;2022-11-15T06:24:07;9.67;;;4.87;;
8708;SDS011;4391;48.678;9.280;2022-11-15T06:26:34;10.32;;;4.15;;
8708;SDS011;4391;48.678;9.280;2022-11-15T06:29:02;8.55;;;4.30;;
8708;SDS011;4391;48.678;9.280;2022-11-15T06:31:29;10.55;;;4.13;;
8708;SDS011;4391;48.678;9.280;2022-11-15T06:33:56;9.00;;;4.05;;
8708;SDS011;4391;48.678;9.280;2022-11-15T06:36:24;9.23;;;4.03;;
8708;SDS011;4391;48.678;9.280;2022-11-15T06:38:51;8.82;;;3.92;;
8708;SDS011;4391;48.678;9.280;2022-11-15T06:41:18;8.93;;;4.30;;
8708;SDS011;4391;48.678;9.280;2022-11-15T06:43:46;9.77;;;3.92;;
8708;SDS011;4391;48.678;9.280;2022-11-15T06:46:12;10.30;;;4.38;;
8708;SDS011;4391;48.678;9.280;2022-11-15T06:48:39;8.93;;;3.97;;
8708;SDS011;4391;48.678;9.280;2022-11-15T06:51:06;8.85;;;3.50;;
8708;SDS011;4391;48.678;9.280;2022-11-15T06:53:34;8.32;;;4.40;;
8708;SDS011;4391;48.678;9.280;2022-11-15T06:56:02;9.35;;;4.53;;
8708;SDS011;4391;48.678;9.280;2022-11-15T06:58:31;17.88;;;6.78;;
8708;SDS011;4391;48.678;9.280;2022-11-15T07:00:58;20.00;;;5.93;;
8708;SDS011;4391;48.678;9.280;2022-11-15T07:03:25;12.63;;;5.80;;
8708;SDS011;4391;48.678;9.280;2022-11-15T07:05:52;12.20;;;5.82;;
8708;SDS011;4391;48.678;9.280;2022-11-15T07:08:20;16.25;;;6.80;;
8708;SDS011;4391;48.678;9.280;2022-11-15T07:10:49;12.98;;;6.30;;
8708;SDS011;4391;48.678;9.280;2022-11-15T07:13:16;15.73;;;6.30;;
8708;SDS011;4391;48.678;9.280;2022-11-15T07:15:43;12.85;;;6.22;;
8708;SDS011;4391;48.678;9.280;2022-11-15T07:18:10;15.27;;;6.93;;
8708;SDS011;4391;48.678;9.280;2022-11-15T07:20:37;13.70;;;6.95;;
8708;SDS011;4391;48.678;9.280;2022-11-15T07:23:04;14.23;;;6.85;;
8708;SDS011;4391;48.678;9.280;2022-11-15T07:25:32;12.93;;;6.70;;
8708;SDS011;4391;48.678;9.280;2022-11-15T07:28:01;13.15;;;6.25;;
8708;SDS011;4391;48.678;9.280;2022-11-15T07:30:28;12.52;;;6.53;;
8708;SDS011;4391;48.678;9.280;2022-11-15T07:32:55;12.95;;;6.30;;
8708;SDS011;4391;48.678;9.280;2022-11-15T07:35:23;12.32;;;6.43;;
8708;SDS011;4391;48.678;9.280;2022-11-15T07:37:54;20.13;;;8.80;;
8708;SDS011;4391;48.678;9.280;2022-11-15T07:40:22;17.13;;;9.32;;
8708;SDS011;4391;48.678;9.280;2022-11-15T07:42:49;19.88;;;9.15;;
8708;SDS011;4391;48.678;9.280;2022-11-15T07:45:20;16.60;;;8.57;;
8708;SDS011;4391;48.678;9.280;2022-11-15T07:47:47;17.63;;;8.70;;
8708;SDS011;4391;48.678;9.280;2022-11-15T07:50:15;15.77;;;8.63;;
8708;SDS011;4391;48.678;9.280;2022-11-15T07:52:42;16.92;;;8.05;;
8708;SDS011;4391;48.678;9.280;2022-11-15T07:55:09;15.30;;;8.00;;
8708;SDS011;4391;48.678;9.280;2022-11-15T07:57:36;13.63;;;6.93;;
8708;SDS011;4391;48.678;9.280;2022-11-15T08:00:03;10.98;;;5.95;;
8708;SDS011;4391;48.678;9.280;2022-11-15T08:02:33;11.40;;;5.90;;
8708;SDS011;4391;48.678;9.280;2022-11-15T08:05:00;11.73;;;6.03;;
8708;SDS011;4391;48.678;9.280;2022-11-15T08:07:28;10.90;;;5.85;;
8708;SDS011;4391;48.678;9.280;2022-11-15T08:09:56;12.07;;;6.50;;
8708;SDS011;4391;48.678;9.280;2022-11-15T08:12:23;11.35;;;6.07;;
8708;SDS011;4391;48.678;9.280;2022-11-15T08:14:50;10.37;;;5.47;;
8708;SDS011;4391;48.678;9.280;2022-11-15T08:17:16;8.70;;;5.05;;
8708;SDS011;4391;48.678;9.280;2022-11-15T08:19:45;10.75;;;5.25;;
8708;SDS011;4391;48.678;9.280;2022-11-15T08:22:12;10.52;;;5.15;;
8708;SDS011;4391;48.678;9.280;2022-11-15T08:24:39;10.88;;;5.43;;
8708;SDS011;4391;48.678;9.280;2022-11-15T08:27:06;9.57;;;4.77;;
8708;SDS011;4391;48.678;9.280;2022-11-15T08:29:40;12.50;;;4.68;;
8708;SDS011;4391;48.678;9.280;2022-11-15T08:32:08;10.95;;;5.20;;
8708;SDS011;4391;48.678;9.280;2022-11-15T08:34:35;11.52;;;4.18;;
8708;SDS011;4391;48.678;9.280;2022-11-15T08:37:03;7.47;;;3.88;;
8708;SDS011;4391;48.678;9.280;2022-11-15T08:39:30;9.17;;;3.97;;
8708;SDS011;4391;48.678;9.280;2022-11-15T08:41:57;8.18;;;3.90;;
8708;SDS011;4391;48.678;9.280;2022-11-15T08:44:24;12.82;;;5.00;;
8708;SDS011;4391;48.678;9.280;2022-11-15T08:46:51;12.18;;;4.70;;
8708;SDS011;4391;48.678;9.280;2022-11-15T08:49:18;8.48;;;4.28;;
8708;SDS011;4391;48.678;9.280;2022-11-15T08:51:45;17.77;;;5.60;;
8708;SDS011;4391;48.678;9.280;2022-11-15T08:54:13;11.38;;;4.50;;
8708;SDS011;4391;48.678;9.280;2022-11-15T08:56:40;8.45;;;4.55;;
8708;SDS011;4391;48.678;9.280;2022-11-15T08:59:07;8.50;;;4.35;;
8708;SDS011;4391;48.678;9.280;2022-11-15T09:01:34;13.90;;;4.57;;
8708;SDS011;4391;48.678;9.280;2022-11-15T09:04:01;11.53;;;3.90;;
8708;SDS011;4391;48.678;9.280;2022-11-15T09:06:29;10.70;;;3.85;;
8708;SDS011;4391;48.678;9.280;2022-11-15T09:08:55;9.80;;;4.00;;
8708;SDS011;4391;48.678;9.280;2022-11-15T09:11:24;8.35;;;4.03;;
8708;SDS011;4391;48.678;9.280;2022-11-15T09:13:51;9.63;;;3.95;;
8708;SDS011;4391;48.678;9.280;2022-11-15T09:16:18;9.50;;;4.37;;
8708;SDS011;4391;48.678;9.280;2022-11-15T09:18:45;9.35;;;4.00;;
8708;SDS011;4391;48.678;9.280;2022-11-15T09:21:12;9.40;;;4.10;;
8708;SDS011;4391;48.678;9.280;2022-11-15T09:23:39;10.25;;;4.38;;
8708;SDS011;4391;48.678;9.280;2022-11-15T09:26:06;10.20;;;4.28;;
8708;SDS011;4391;48.678;9.280;2022-11-15T09:28:34;8.03;;;4.17;;
8708;SDS011;4391;48.678;9.280;2022-11-15T09:31:04;10.82;;;4.18;;
8708;SDS011;4391;48.678;9.280;2022-11-15T09:33:31;9.77;;;4.18;;
8708;SDS011;4391;48.678;9.280;2022-11-15T09:36:02;7.43;;;3.97;;
8708;SDS011;4391;48.678;9.280;2022-11-15T09:38:31;10.65;;;3.83;;
8708;SDS011;4391;48.678;9.280;2022-11-15T09:41:15;9.13;;;4.20;;
8708;SDS011;4391;48.678;9.280;2022-11-15T09:44:13;11.13;;;4.40;;
8708;SDS011;4391;48.678;9.280;2022-11-15T09:47:04;9.07;;;4.80;;
8708;SDS011;4391;48.678;9.280;2022-11-15T09:49:57;12.93;;;5.30;;
8708;SDS011;4391;48.678;9.280;2022-11-15T09:52:26;9.95;;;4.88;;
8708;SDS011;4391;48.678;9.280;2022-11-15T09:54:54;9.57;;;5.03;;
8708;SDS011;4391;48.678;9.280;2022-11-15T09:57:23;12.05;;;5.53;;
8708;SDS011;4391;48.678;9.280;2022-11-15T10:00:04;12.65;;;5.15;;
8708;SDS011;4391;48.678;9.280;2022-11-15T10:02:43;13.45;;;5.88;;
8708;SDS011;4391;48.678;9.280;2022-11-15T10:05:19;11.05;;;5.05;;
8708;SDS011;4391;48.678;9.280;2022-11-15T10:07:50;7.77;;;3.90;;
8708;SDS011;4391;48.678;9.280;2022-11-15T10:10:25;9.02;;;4.40;;
8708;SDS011;4391;48.678;9.280;2022-11-15T10:12:55;6.95;;;4.13;;
8708;SDS011;4391;48.678;9.280;2022-11-15T10:15:25;10.73;;;4.40;;
8708;SDS011;4391;48.678;9.280;2022-11-15T10:17:59;9.77;;;4.65;;
8708;SDS011;4391;48.678;9.280;2022-11-15T10:20:39;7.27;;;4.30;;
8708;SDS011;4391;48.678;9.280;2022-11-15T10:23:11;11.65;;;4.57;;
8708;SDS011;4391;48.678;9.280;2022-11-15T10:25:41;11.55;;;4.35;;
8708;SDS011;4391;48.678;9.280;2022-11-15T10:28:09;8.20;;;4.43;;
8708;SDS011;4391;48.678;9.280;2022-11-15T10:30:42;10.77;;;4.90;;
8708;SDS011;4391;48.678;9.280;2022-11-15T10:33:22;11.30;;;4.10;;
8708;SDS011;4391;48.678;9.280;2022-11-15T10:38:51;15.80;;;4.03;;
8708;SDS011;4391;48.678;9.280;2022-11-15T10:41:19;10.35;;;4.30;;
8708;SDS011;4391;48.678;9.280;2022-11-15T10:44:02;10.18;;;3.85;;
8708;SDS011;4391;48.678;9.280;2022-11-15T10:46:37;10.03;;;4.10;;
8708;SDS011;4391;48.678;9.280;2022-11-15T10:49:12;7.28;;;3.75;;
8708;SDS011;4391;48.678;9.280;2022-11-15T10:51:41;15.73;;;4.45;;
8708;SDS011;4391;48.678;9.280;2022-11-15T10:54:11;10.50;;;4.53;;
8708;SDS011;4391;48.678;9.280;2022-11-15T10:56:39;9.60;;;4.32;;
8708;SDS011;4391;48.678;9.280;2022-11-15T10:59:14;10.87;;;3.90;;
8708;SDS011;4391;48.678;9.280;2022-11-15T11:01:48;8.07;;;3.80;;
8708;SDS011;4391;48.678;9.280;2022-11-15T11:04:15;9.45;;;4.32;;
8708;SDS011;4391;48.678;9.280;2022-11-15T11:06:46;10.43;;;4.07;;
8708;SDS011;4391;48.678;9.280;2022-11-15T11:09:28;11.38;;;4.35;;
8708;SDS011;4391;48.678;9.280;2022-11-15T11:11:58;8.43;;;3.83;;
8708;SDS011;4391;48.678;9.280;2022-11-15T11:14:26;9.90;;;3.90;;
8708;SDS011;4391;48.678;9.280;2022-11-15T11:16:59;8.75;;;4.35;;
8708;SDS011;4391;48.678;9.280;2022-11-15T11:19:39;8.27;;;3.80;;
8708;SDS011;4391;48.678;9.280;2022-11-15T11:22:20;10.13;;;4.20;;
8708;SDS011;4391;48.678;9.280;2022-11-15T11:25:02;9.70;;;3.70;;
8708;SDS011;4391;48.678;9.280;2022-11-15T11:27:40;8.38;;;3.78;;
8708;SDS011;4391;48.678;9.280;2022-11-15T11:30:14;9.52;;;3.65;;
8708;SDS011;4391;48.678;9.280;2022-11-15T11:35:39;8.00;;;3.38;;
8708;SDS011;4391;48.678;9.280;2022-11-15T11:38:22;6.97;;;3.27;;
8708;SDS011;4391;48.678;9.280;2022-11-15T11:41:02;8.02;;;3.05;;
8708;SDS011;4391;48.678;9.280;2022-11-15T11:43:36;10.13;;;3.45;;
8708;SDS011;4391;48.678;9.280;2022-11-15T11:46:17;6.97;;;3.10;;
8708;SDS011;4391;48.678;9.280;2022-11-15T11:49:01;7.82;;;2.67;;
8708;SDS011;4391;48.678;9.280;2022-11-15T11:51:36;6.10;;;2.93;;
8708;SDS011;4391;48.678;9.280;2022-11-15T11:54:09;6.30;;;2.75;;
8708;SDS011;4391;48.678;9.280;2022-11-15T11:56:41;7.50;;;3.10;;
8708;SDS011;4391;48.678;9.280;2022-11-15T11:59:11;6.90;;;2.90;;
8708;SDS011;4391;48.678;9.280;2022-11-15T12:01:45;12.57;;;3.50;;
8708;SDS011;4391;48.678;9.280;2022-11-15T12:04:14;6.60;;;2.53;;
8708;SDS011;4391;48.678;9.280;2022-11-15T12:06:46;6.35;;;3.35;;
8708;SDS011;4391;48.678;9.280;2022-11-15T12:09:17;8.45;;;2.92;;
8708;SDS011;4391;48.678;9.280;2022-11-15T12:11:51;11.57;;;2.90;;
8708;SDS011;4391;48.678;9.280;2022-11-15T12:14:27;9.00;;;2.72;;
8708;SDS011;4391;48.678;9.280;2022-11-15T12:16:58;31.43;;;10.53;;
8708;SDS011;4391;48.678;9.280;2022-11-15T12:19:27;16.75;;;5.40;;
8708;SDS011;4391;48.678;9.280;2022-11-15T12:21:56;9.55;;;3.90;;
8708;SDS011;4391;48.678;9.280;2022-11-15T12:24:29;7.25;;;2.90;;
8708;SDS011;4391;48.678;9.280;2022-11-15T12:27:02;9.90;;;2.90;;
8708;SDS011;4391;48.678;9.280;2022-11-15T12:29:35;4.43;;;1.77;;
8708;SDS011;4391;48.678;9.280;2022-11-15T12:32:05;7.95;;;2.78;;
8708;SDS011;4391;48.678;9.280;2022-11-15T12:34:45;11.05;;;2.50;;
8708;SDS011;4391;48.678;9.280;2022-11-15T12:37:33;6.72;;;2.20;;
8708;SDS011;4391;48.678;9.280;2022-11-15T12:40:24;4.85;;;2.15;;
8708;SDS011;4391;48.678;9.280;2022-11-15T12:43:00;5.53;;;2.33;;
8708;SDS011;4391;48.678;9.280;2022-11-15T12:45:30;7.05;;;2.20;;
8708;SDS011;4391;48.678;9.280;2022-11-15T12:51:04;4.63;;;2.13;;
8708;SDS011;4391;48.678;9.280;2022-11-15T12:53:32;8.18;;;2.45;;
8708;SDS011;4391;48.678;9.280;2022-11-15T12:56:15;4.80;;;1.87;;
8708;SDS011;4391;48.678;9.280;2022-11-15T12:58:46;4.60;;;2.10;;
8708;SDS011;4391;48.678;9.280;2022-11-15T13:04:22;9.30;;;3.20;;
8708;SDS011;4391;48.678;9.280;2022-11-15T13:06:53;9.70;;;3.45;;
8708;SDS011;4391;48.678;9.280;2022-11-15T13:15:37;7.53;;;2.63;;
8708;SDS011;4391;48.678;9.280;2022-11-15T13:18:28;6.57;;;2.88;;
8708;SDS011;4391;48.678;9.280;2022-11-15T13:20:57;11.55;;;2.30;;
8708;SDS011;4391;48.678;9.280;2022-11-15T13:23:26;5.60;;;2.50;;
8708;SDS011;4391;48.678;9.280;2022-11-15T13:26:05;7.55;;;2.60;;
8708;SDS011;4391;48.678;9.280;2022-11-15T13:28:41;7.40;;;2.92;;
8708;SDS011;4391;48.678;9.280;2022-11-15T13:31:18;10.98;;;2.92;;
8708;SDS011;4391;48.678;9.280;2022-11-15T13:33:49;6.35;;;2.97;;
8708;SDS011;4391;48.678;9.280;2022-11-15T13:36:18;7.80;;;2.70;;
8708;SDS011;4391;48.678;9.280;2022-11-15T13:38:55;5.88;;;2.58;;
8708;SDS011;4391;48.678;9.280;2022-11-15T13:41:26;8.23;;;2.60;;
8708;SDS011;4391;48.678;9.280;2022-11-15T13:43:55;6.35;;;2.45;;
8708;SDS011;4391;48.678;9.280;2022-11-15T13:46:22;8.57;;;2.72;;
8708;SDS011;4391;48.678;9.280;2022-11-15T13:48:52;5.30;;;2.40;;
8708;SDS011;4391;48.678;9.280;2022-11-15T13:51:23;7.03;;;2.67;;
8708;SDS011;4391;48.678;9.280;2022-11-15T13:53:56;5.70;;;2.60;;
8708;SDS011;4391;48.678;9.280;2022-11-15T13:56:29;6.72;;;2.33;;
8708;SDS011;4391;48.678;9.280;2022-11-15T13:58:59;7.10;;;2.45;;
8708;SDS011;4391;48.678;9.280;2022-11-15T14:01:26;6.47;;;2.07;;
8708;SDS011;4391;48.678;9.280;2022-11-15T14:03:59;8.00;;;3.08;;
8708;SDS011;4391;48.678;9.280;2022-11-15T14:06:27;9.60;;;2.70;;
8708;SDS011;4391;48.678;9.280;2022-11-15T14:09:14;10.82;;;3.10;;
8708;SDS011;4391;48.678;9.280;2022-11-15T14:11:51;22.88;;;8.60;;
8708;SDS011;4391;48.678;9.280;2022-11-15T14:14:20;11.97;;;6.20;;
8708;SDS011;4391;48.678;9.280;2022-11-15T14:16:48;14.13;;;4.70;;
8708;SDS011;4391;48.678;9.280;2022-11-15T14:22:17;9.98;;;3.40;;
8708;SDS011;4391;48.678;9.280;2022-11-15T14:25:03;5.97;;;2.95;;
8708;SDS011;4391;48.678;9.280;2022-11-15T14:27:41;7.37;;;2.80;;
8708;SDS011;4391;48.678;9.280;2022-11-15T14:30:12;5.40;;;2.38;;
8708;SDS011;4391;48.678;9.280;2022-11-15T14:32:43;7.53;;;3.05;;
8708;SDS011;4391;48.678;9.280;2022-11-15T14:35:13;9.75;;;4.10;;
8708;SDS011;4391;48.678;9.280;2022-11-15T14:37:41;8.30;;;3.67;;
8708;SDS011;4391;48.678;9.280;2022-11-15T14:40:13;8.87;;;3.53;;
8708;SDS011;4391;48.678;9.280;2022-11-15T14:42:42;6.97;;;3.20;;
8708;SDS011;4391;48.678;9.280;2022-11-15T14:45:11;10.52;;;3.85;;
8708;SDS011;4391;48.678;9.280;2022-11-15T14:47:40;7.55;;;3.33;;
8708;SDS011;4391;48.678;9.280;2022-11-15T14:50:10;9.02;;;3.53;;
8708;SDS011;4391;48.678;9.280;2022-11-15T14:52:39;8.77;;;3.63;;
8708;SDS011;4391;48.678;9.280;2022-11-15T14:55:11;8.32;;;3.50;;
8708;SDS011;4391;48.678;9.280;2022-11-15T14:57:43;8.15;;;3.42;;
8708;SDS011;4391;48.678;9.280;2022-11-15T15:00:10;8.75;;;3.50;;
8708;SDS011;4391;48.678;9.280;2022-11-15T15:02:38;12.30;;;4.18;;
8708;SDS011;4391;48.678;9.280;2022-11-15T15:05:11;10.30;;;3.87;;
8708;SDS011;4391;48.678;9.280;2022-11-15T15:07:40;7.90;;;3.30;;
8708;SDS011;4391;48.678;9.280;2022-11-15T15:10:10;10.82;;;3.83;;
8708;SDS011;4391;48.678;9.280;2022-11-15T15:12:39;9.15;;;3.53;;
8708;SDS011;4391;48.678;9.280;2022-11-15T15:15:09;9.38;;;3.70;;
8708;SDS011;4391;48.678;9.280;2022-11-15T15:17:39;13.30;;;3.60;;
8708;SDS011;4391;48.678;9.280;2022-11-15T15:20:07;11.60;;;3.78;;
8708;SDS011;4391;48.678;9.280;2022-11-15T15:22:34;9.48;;;3.90;;
8708;SDS011;4391;48.678;9.280;2022-11-15T15:25:01;9.23;;;3.50;;
8708;SDS011;4391;48.678;9.280;2022-11-15T15:27:29;10.93;;;3.50;;
8708;SDS011;4391;48.678;9.280;2022-11-15T15:29:57;13.43;;;5.77;;
8708;SDS011;4391;48.678;9.280;2022-11-15T15:32:24;13.20;;;4.97;;
8708;SDS011;4391;48.678;9.280;2022-11-15T15:34:51;10.57;;;5.57;;
8708;SDS011;4391;48.678;9.280;2022-11-15T15:37:22;12.57;;;5.97;;
8708;SDS011;4391;48.678;9.280;2022-11-15T15:39:50;13.18;;;6.53;;
8708;SDS011;4391;48.678;9.280;2022-11-15T15:42:18;13.77;;;7.13;;
8708;SDS011;4391;48.678;9.280;2022-11-15T15:44:45;12.45;;;6.38;;
8708;SDS011;4391;48.678;9.280;2022-11-15T15:47:14;15.63;;;6.00;;
8708;SDS011;4391;48.678;9.280;2022-11-15T15:49:44;13.40;;;5.65;;
8708;SDS011;4391;48.678;9.280;2022-11-15T15:52:11;15.60;;;5.88;;
8708;SDS011;4391;48.678;9.280;2022-11-15T15:54:38;20.07;;;5.20;;